createdAt,value
2019-06-26T00:01:25.774Z,25.60
2019-06-26T00:03:58.656Z,25.90
2019-06-26T00:06:31.187Z,26.00
2019-06-26T00:09:03.646Z,25.90
2019-06-26T00:11:36.395Z,25.50
2019-06-26T00:14:08.821Z,25.60
2019-06-26T00:16:41.180Z,25.70
2019-06-26T00:19:13.863Z,25.60
2019-06-26T00:21:46.206Z,25.40
2019-06-26T00:24:18.749Z,25.20
2019-06-26T00:26:51.078Z,25.20
2019-06-26T00:29:23.447Z,25.20
2019-06-26T00:31:55.781Z,25.10
2019-06-26T00:34:28.336Z,24.80
2019-06-26T00:37:00.764Z,24.80
2019-06-26T00:39:34.311Z,25.00
2019-06-26T00:42:06.848Z,24.80
2019-06-26T00:44:39.208Z,24.60
2019-06-26T00:47:11.700Z,24.60
2019-06-26T00:49:45.054Z,24.30
2019-06-26T00:52:17.385Z,24.20
2019-06-26T00:54:49.749Z,24.20
2019-06-26T00:57:22.525Z,24.00
2019-06-26T00:59:54.981Z,23.80
2019-06-26T01:02:27.313Z,24.10
2019-06-26T01:05:09.889Z,24.10
2019-06-26T01:07:42.321Z,23.90
2019-06-26T01:10:15.491Z,24.10
2019-06-26T01:12:48.190Z,23.90
2019-06-26T01:15:21.319Z,23.80
2019-06-26T01:17:54.734Z,23.80
2019-06-26T01:20:27.149Z,23.80
2019-06-26T01:22:59.488Z,23.80
2019-06-26T01:25:32.047Z,23.80
2019-06-26T01:28:04.380Z,23.40
2019-06-26T01:30:36.950Z,23.80
2019-06-26T01:33:11.215Z,23.50
2019-06-26T01:35:45.295Z,23.50
2019-06-26T01:38:17.627Z,23.60
2019-06-26T01:40:50.085Z,23.50
2019-06-26T01:43:22.393Z,23.70
2019-06-26T01:45:54.757Z,23.70
2019-06-26T01:48:27.262Z,23.60
2019-06-26T01:50:59.746Z,23.40
2019-06-26T01:53:32.087Z,23.10
2019-06-26T01:56:04.482Z,23.10
2019-06-26T01:58:36.854Z,22.60
2019-06-26T02:01:09.298Z,22.90
2019-06-26T02:03:41.913Z,23.30
2019-06-26T02:06:14.722Z,23.20
2019-06-26T02:08:47.422Z,23.20
2019-06-26T02:11:20.190Z,22.50
2019-06-26T02:13:52.870Z,22.90
2019-06-26T02:16:25.293Z,23.00
2019-06-26T02:18:58.990Z,22.60
2019-06-26T02:21:31.401Z,22.40
2019-06-26T02:24:03.839Z,22.50
2019-06-26T02:26:36.425Z,22.20
2019-06-26T02:29:08.791Z,22.20
2019-06-26T02:31:41.219Z,21.90
2019-06-26T02:34:13.593Z,21.60
2019-06-26T02:36:46.210Z,21.80
2019-06-26T02:39:18.561Z,22.00
2019-06-26T02:41:51.264Z,21.80
2019-06-26T02:44:23.631Z,21.80
2019-06-26T02:47:13.622Z,21.80
2019-06-26T02:49:29.879Z,22.10
2019-06-26T02:52:02.530Z,22.00
2019-06-26T02:54:34.978Z,21.70
2019-06-26T02:57:07.614Z,22.00
2019-06-26T02:59:40.273Z,22.00
2019-06-26T03:02:13.030Z,21.80
2019-06-26T03:04:45.705Z,22.50
2019-06-26T03:07:18.429Z,22.40
2019-06-26T03:09:50.832Z,21.90
2019-06-26T03:12:23.430Z,21.80
2019-06-26T03:15:08.209Z,21.70
2019-06-26T03:17:30.465Z,21.70
2019-06-26T03:20:02.979Z,21.50
2019-06-26T03:22:35.456Z,21.50
2019-06-26T03:25:08.886Z,20.90
2019-06-26T03:27:41.758Z,21.30
2019-06-26T03:30:14.407Z,21.10
2019-06-26T03:32:46.851Z,21.50
2019-06-26T03:35:19.302Z,20.90
2019-06-26T03:37:52.034Z,21.40
2019-06-26T03:40:24.394Z,21.80
2019-06-26T03:42:57.210Z,22.00
2019-06-26T03:45:29.595Z,22.10
2019-06-26T03:48:02.092Z,22.10
2019-06-26T03:50:34.509Z,22.00
2019-06-26T03:53:07.095Z,21.60
2019-06-26T03:55:39.309Z,22.10
2019-06-26T03:58:12.583Z,22.30
2019-06-26T04:00:45.261Z,21.60
2019-06-26T04:03:17.493Z,21.70
2019-06-26T04:05:49.695Z,21.70
2019-06-26T04:11:12.933Z,21.90
2019-06-26T04:13:45.265Z,21.50
2019-06-26T04:16:17.654Z,21.20
2019-06-26T04:18:49.883Z,21.20
2019-06-26T04:21:22.116Z,21.50
2019-06-26T04:23:54.623Z,21.10
2019-06-26T04:26:28.517Z,21.00
2019-06-26T04:29:01.097Z,20.80
2019-06-26T04:31:33.237Z,20.70
2019-06-26T04:34:05.459Z,21.00
2019-06-26T04:36:37.756Z,20.90
2019-06-26T04:39:10.106Z,21.30
2019-06-26T04:41:42.261Z,21.10
2019-06-26T04:44:14.459Z,21.10
2019-06-26T04:46:46.841Z,20.80
2019-06-26T04:49:19.138Z,21.00
2019-06-26T04:51:51.271Z,20.80
2019-06-26T04:54:23.462Z,20.60
2019-06-26T04:56:55.815Z,20.90
2019-06-26T04:59:27.944Z,21.10
2019-06-26T05:02:00.359Z,21.10
2019-06-26T05:04:32.657Z,20.70
2019-06-26T05:07:05.005Z,20.60
2019-06-26T05:09:37.207Z,20.60
2019-06-26T05:12:09.794Z,20.80
2019-06-26T05:14:42.199Z,20.70
2019-06-26T05:17:15.146Z,20.10
2019-06-26T05:19:47.492Z,19.50
2019-06-26T05:22:19.869Z,19.10
2019-06-26T05:24:52.308Z,18.80
2019-06-26T05:27:24.904Z,18.70
2019-06-26T05:29:57.443Z,18.60
2019-06-26T05:32:30.024Z,18.50
2019-06-26T05:35:03.636Z,18.30
2019-06-26T05:37:36.032Z,18.20
2019-06-26T05:40:10.518Z,18.20
2019-06-26T05:42:42.994Z,18.10
2019-06-26T05:45:17.830Z,18.20
2019-06-26T05:47:50.200Z,18.20
2019-06-26T05:50:22.847Z,18.10
2019-06-26T05:52:55.214Z,18.10
2019-06-26T05:55:27.577Z,18.10
2019-06-26T05:58:00.103Z,18.10
2019-06-26T06:00:32.534Z,18.10
2019-06-26T06:03:05.107Z,18.00
2019-06-26T06:05:37.727Z,18.10
2019-06-26T06:08:10.245Z,18.00
2019-06-26T06:10:42.875Z,17.90
2019-06-26T06:13:15.240Z,17.90
2019-06-26T06:15:47.584Z,17.80
2019-06-26T06:18:20.137Z,17.90
2019-06-26T06:20:52.480Z,17.90
2019-06-26T06:23:24.880Z,17.80
2019-06-26T06:25:57.226Z,17.70
2019-06-26T06:28:29.606Z,17.80
2019-06-26T06:31:01.981Z,17.80
2019-06-26T06:33:34.959Z,17.70
2019-06-26T06:36:09.669Z,17.50
2019-06-26T06:38:41.078Z,17.50
2019-06-26T06:41:13.722Z,17.40
2019-06-26T06:43:46.118Z,17.20
2019-06-26T06:46:19.895Z,17.20
2019-06-26T06:48:52.261Z,17.30
2019-06-26T06:51:24.617Z,17.20
2019-06-26T06:53:57.010Z,17.10
2019-06-26T06:56:29.362Z,17.10
2019-06-26T06:59:02.056Z,17.00
2019-06-26T07:01:34.526Z,16.90
2019-06-26T07:04:07.412Z,16.80
2019-06-26T07:06:40.080Z,16.80
2019-06-26T07:09:12.572Z,16.80
2019-06-26T07:11:45.007Z,16.80
2019-06-26T07:14:17.414Z,17.00
2019-06-26T07:16:50.147Z,17.00
2019-06-26T07:19:23.110Z,16.90
2019-06-26T07:21:55.496Z,16.90
2019-06-26T07:24:28.103Z,16.80
2019-06-26T07:27:00.759Z,16.80
2019-06-26T07:29:33.297Z,16.80
2019-06-26T07:32:05.634Z,16.70
2019-06-26T07:34:38.314Z,16.70
2019-06-26T07:37:10.877Z,16.60
2019-06-26T07:39:43.244Z,16.60
2019-06-26T07:42:15.608Z,16.80
2019-06-26T07:44:47.962Z,16.70
2019-06-26T07:47:23.444Z,16.80
2019-06-26T07:49:54.544Z,16.70
2019-06-26T07:52:27.255Z,16.70
2019-06-26T07:55:00.207Z,16.80
2019-06-26T07:57:32.613Z,16.70
2019-06-26T08:00:05.679Z,16.70
2019-06-26T08:02:38.119Z,16.70
2019-06-26T08:05:11.653Z,16.70
2019-06-26T08:07:44.317Z,16.60
2019-06-26T08:10:18.063Z,16.60
2019-06-26T08:12:50.406Z,16.60
2019-06-26T08:15:22.932Z,16.60
2019-06-26T08:18:00.734Z,16.60
2019-06-26T08:20:29.491Z,16.60
2019-06-26T08:23:01.876Z,16.60
2019-06-26T08:25:34.274Z,16.50
2019-06-26T08:28:06.803Z,16.50
2019-06-26T08:30:39.326Z,16.50
2019-06-26T08:33:12.035Z,16.50
2019-06-26T08:35:44.534Z,16.40
2019-06-26T08:38:16.905Z,16.40
2019-06-26T08:40:49.328Z,16.20
2019-06-26T08:43:22.024Z,16.30
2019-06-26T08:45:54.466Z,16.30
2019-06-26T08:48:39.762Z,16.20
2019-06-26T08:51:03.211Z,16.30
2019-06-26T08:53:35.571Z,16.30
2019-06-26T08:56:07.980Z,16.30
2019-06-26T08:58:40.512Z,16.20
2019-06-26T09:01:13.620Z,16.10
2019-06-26T09:03:46.194Z,16.10
2019-06-26T09:06:18.633Z,16.30
2019-06-26T09:08:50.830Z,16.10
2019-06-26T09:11:23.177Z,16.10
2019-06-26T09:13:55.654Z,16.20
2019-06-26T09:16:28.369Z,16.10
2019-06-26T09:19:01.977Z,16.10
2019-06-26T09:21:34.623Z,16.10
2019-06-26T09:24:06.990Z,16.10
2019-06-26T09:26:39.351Z,16.10
2019-06-26T09:29:11.882Z,16.00
2019-06-26T09:31:44.230Z,16.00
2019-06-26T09:34:17.292Z,16.10
2019-06-26T09:36:49.618Z,16.00
2019-06-26T09:39:21.977Z,16.00
2019-06-26T09:41:54.315Z,16.00
2019-06-26T09:44:26.707Z,16.00
2019-06-26T09:46:59.040Z,16.10
2019-06-26T09:49:32.436Z,16.00
2019-06-26T09:52:05.203Z,16.10
2019-06-26T09:54:38.024Z,16.10
2019-06-26T09:57:10.363Z,16.10
2019-06-26T09:59:42.765Z,16.20
2019-06-26T10:02:15.115Z,16.30
2019-06-26T10:04:47.833Z,16.10
2019-06-26T10:07:20.179Z,16.10
2019-06-26T10:09:52.805Z,16.10
2019-06-26T10:12:25.144Z,16.10
2019-06-26T10:14:57.569Z,15.90
2019-06-26T10:17:30.241Z,15.70
2019-06-26T10:20:02.613Z,15.50
2019-06-26T10:22:35.681Z,15.60
2019-06-26T10:25:11.298Z,15.80
2019-06-26T10:27:43.389Z,15.80
2019-06-26T10:30:16.203Z,15.90
2019-06-26T10:32:48.526Z,15.80
2019-06-26T10:35:21.310Z,15.80
2019-06-26T10:37:54.866Z,15.80
2019-06-26T10:40:27.420Z,15.70
2019-06-26T10:42:59.831Z,15.60
2019-06-26T10:45:35.868Z,15.60
2019-06-26T10:48:06.230Z,15.60
2019-06-26T10:50:48.187Z,15.60
2019-06-26T10:53:12.386Z,15.50
2019-06-26T10:55:45.211Z,15.60
2019-06-26T10:58:17.716Z,15.50
2019-06-26T11:00:50.127Z,15.60
2019-06-26T11:03:22.480Z,15.50
2019-06-26T11:05:55.069Z,15.40
2019-06-26T11:08:27.525Z,15.50
2019-06-26T11:10:59.945Z,15.20
2019-06-26T11:13:34.338Z,15.10
2019-06-26T11:16:06.920Z,15.20
2019-06-26T11:18:39.249Z,15.10
2019-06-26T11:21:12.035Z,15.20
2019-06-26T11:23:44.751Z,15.10
2019-06-26T11:26:17.384Z,15.00
2019-06-26T11:28:49.716Z,15.10
2019-06-26T11:31:22.061Z,15.20
2019-06-26T11:33:54.399Z,15.20
2019-06-26T11:36:27.169Z,15.30
2019-06-26T11:38:59.671Z,15.00
2019-06-26T11:41:32.069Z,15.10
2019-06-26T11:44:04.214Z,15.00
2019-06-26T11:46:37.145Z,15.00
2019-06-26T11:49:09.423Z,15.00
2019-06-26T11:51:41.572Z,14.90
2019-06-26T11:54:13.715Z,14.90
2019-06-26T11:56:45.876Z,14.90
2019-06-26T11:59:18.110Z,15.00
2019-06-26T12:01:50.807Z,15.00
2019-06-26T12:04:23.153Z,14.90
2019-06-26T12:06:55.597Z,14.90
2019-06-26T12:09:28.667Z,15.10
2019-06-26T12:12:00.997Z,15.20
2019-06-26T12:14:33.338Z,15.10
2019-06-26T12:17:05.965Z,15.10
2019-06-26T12:19:38.583Z,15.10
2019-06-26T12:22:10.966Z,15.10
2019-06-26T12:24:43.522Z,15.10
2019-06-26T12:27:15.882Z,15.10
2019-06-26T12:29:48.312Z,15.10
2019-06-26T12:32:20.667Z,15.10
2019-06-26T12:34:53.027Z,15.00
2019-06-26T12:37:36.971Z,15.00
2019-06-26T12:39:59.342Z,15.00
2019-06-26T12:42:31.734Z,15.00
2019-06-26T12:45:04.131Z,15.00
2019-06-26T12:47:36.613Z,15.00
2019-06-26T12:50:12.152Z,15.00
2019-06-26T12:52:44.512Z,15.10
2019-06-26T12:55:16.977Z,15.10
2019-06-26T12:57:49.392Z,15.10
2019-06-26T13:00:21.949Z,15.00
2019-06-26T13:02:54.346Z,15.10
2019-06-26T13:05:26.866Z,15.00
2019-06-26T13:07:59.557Z,15.00
2019-06-26T13:10:45.025Z,15.00
2019-06-26T13:13:06.203Z,14.90
2019-06-26T13:15:38.543Z,15.00
2019-06-26T13:18:10.973Z,15.00
2019-06-26T13:20:52.761Z,15.10
2019-06-26T13:23:16.972Z,15.00
2019-06-26T13:25:49.465Z,15.10
2019-06-26T13:28:21.662Z,15.00
2019-06-26T13:30:53.815Z,14.90
2019-06-26T13:33:26.027Z,15.00
2019-06-26T13:35:58.151Z,15.10
2019-06-26T13:38:30.495Z,15.00
2019-06-26T13:41:02.637Z,15.10
2019-06-26T13:43:34.825Z,15.10
2019-06-26T13:46:06.962Z,15.10
2019-06-26T13:48:39.239Z,15.20
2019-06-26T13:51:11.477Z,15.20
2019-06-26T13:53:43.929Z,15.20
2019-06-26T13:56:17.330Z,15.30
2019-06-26T13:58:49.509Z,15.20
2019-06-26T14:01:23.155Z,15.30
2019-06-26T14:03:55.610Z,15.40
2019-06-26T14:06:28.760Z,15.40
2019-06-26T14:09:01.281Z,15.40
2019-06-26T14:11:35.018Z,15.50
2019-06-26T14:14:07.383Z,15.60
2019-06-26T14:16:39.511Z,15.70
2019-06-26T14:19:11.869Z,15.70
2019-06-26T14:21:44.192Z,15.70
2019-06-26T14:24:16.553Z,15.80
2019-06-26T14:26:49.217Z,15.90
2019-06-26T14:29:21.664Z,15.90
2019-06-26T14:31:54.027Z,15.90
2019-06-26T14:34:27.944Z,16.00
2019-06-26T14:37:00.178Z,16.00
2019-06-26T14:39:32.838Z,16.00
2019-06-26T14:42:05.306Z,16.10
2019-06-26T14:44:37.698Z,16.10
2019-06-26T14:47:10.375Z,16.20
2019-06-26T14:49:42.806Z,16.30
2019-06-26T14:52:15.174Z,16.40
2019-06-26T14:54:47.551Z,16.50
2019-06-26T14:57:20.031Z,16.60
2019-06-26T14:59:52.406Z,16.60
2019-06-26T15:02:24.874Z,16.70
2019-06-26T15:04:57.024Z,16.80
2019-06-26T15:07:29.378Z,16.90
2019-06-26T15:10:02.226Z,17.00
2019-06-26T15:12:34.902Z,17.00
2019-06-26T15:15:08.114Z,17.20
2019-06-26T15:17:40.446Z,17.30
2019-06-26T15:20:13.578Z,17.40
2019-06-26T15:22:45.779Z,17.80
2019-06-26T15:25:19.069Z,17.90
2019-06-26T15:27:51.839Z,18.20
2019-06-26T15:30:25.182Z,18.30
2019-06-26T15:32:57.633Z,18.20
2019-06-26T15:35:30.162Z,18.30
2019-06-26T15:38:02.747Z,18.30
2019-06-26T15:40:35.378Z,18.40
2019-06-26T15:43:07.855Z,18.50
2019-06-26T15:45:40.267Z,18.60
2019-06-26T15:48:12.458Z,18.70
2019-06-26T15:50:44.982Z,19.00
2019-06-26T15:53:17.518Z,19.00
2019-06-26T15:55:50.078Z,19.20
2019-06-26T15:58:22.433Z,19.40
2019-06-26T16:00:54.892Z,19.50
2019-06-26T16:03:27.245Z,19.70
2019-06-26T16:05:59.697Z,19.70
2019-06-26T16:08:32.042Z,19.80
2019-06-26T16:11:05.043Z,19.90
2019-06-26T16:13:37.604Z,19.90
2019-06-26T16:16:10.255Z,19.70
2019-06-26T16:18:45.207Z,19.60
2019-06-26T16:21:17.733Z,19.80
2019-06-26T16:23:50.058Z,20.10
2019-06-26T16:26:22.418Z,20.70
2019-06-26T16:28:55.121Z,20.50
2019-06-26T16:31:27.496Z,20.20
2019-06-26T16:33:59.915Z,20.20
2019-06-26T16:36:32.288Z,20.20
2019-06-26T16:39:04.816Z,20.80
2019-06-26T16:41:38.097Z,21.20
2019-06-26T16:44:10.527Z,21.60
2019-06-26T16:46:44.174Z,21.70
2019-06-26T16:49:19.477Z,21.80
2019-06-26T16:51:53.592Z,21.80
2019-06-26T16:54:26.603Z,22.00
2019-06-26T16:57:02.126Z,22.20
2019-06-26T16:59:35.601Z,22.40
2019-06-26T17:02:10.443Z,22.30
2019-06-26T17:04:43.702Z,22.30
2019-06-26T17:07:16.410Z,22.40
2019-06-26T17:09:50.104Z,22.70
2019-06-26T17:12:23.783Z,22.40
2019-06-26T17:14:57.209Z,22.10
2019-06-26T17:17:30.278Z,22.10
2019-06-26T17:20:14.348Z,22.10
2019-06-26T17:22:46.310Z,21.90
2019-06-26T17:25:18.744Z,21.60
2019-06-26T17:27:51.102Z,21.80
2019-06-26T17:30:23.965Z,21.70
2019-06-26T17:32:56.441Z,21.70
2019-06-26T17:35:28.807Z,21.60
2019-06-26T17:38:01.316Z,22.00
2019-06-26T17:40:33.649Z,21.80
2019-06-26T17:43:12.417Z,21.70
2019-06-26T17:45:40.357Z,21.80
2019-06-26T17:48:14.236Z,22.00
2019-06-26T17:50:46.581Z,21.70
2019-06-26T17:53:22.055Z,21.50
2019-06-26T17:55:52.837Z,21.00
2019-06-26T17:58:25.649Z,20.70
2019-06-26T18:00:59.579Z,21.00
2019-06-26T18:03:31.947Z,21.10
2019-06-26T18:06:05.400Z,21.00
2019-06-26T18:08:37.785Z,21.00
2019-06-26T18:11:10.831Z,21.10
2019-06-26T18:13:43.437Z,20.80
2019-06-26T18:16:16.091Z,21.10
2019-06-26T18:18:48.445Z,21.40
2019-06-26T18:21:20.803Z,21.40
2019-06-26T18:23:53.190Z,21.50
2019-06-26T18:26:25.532Z,21.40
2019-06-26T18:28:57.997Z,21.40
2019-06-26T18:31:30.792Z,21.50
2019-06-26T18:34:03.298Z,21.90
2019-06-26T18:36:35.636Z,21.40
2019-06-26T18:39:09.883Z,21.50
2019-06-26T18:41:42.236Z,22.00
2019-06-26T18:44:15.193Z,22.00
2019-06-26T18:46:47.544Z,22.20
2019-06-26T18:49:19.938Z,23.40
2019-06-26T18:51:52.298Z,22.90
2019-06-26T18:54:24.671Z,22.80
2019-06-26T18:56:57.106Z,23.10
2019-06-26T18:59:29.553Z,22.80
2019-06-26T19:02:01.989Z,22.90
2019-06-26T19:04:34.387Z,22.50
2019-06-26T19:07:06.806Z,22.90
2019-06-26T19:09:39.476Z,22.90
2019-06-26T19:12:11.824Z,22.70
2019-06-26T19:14:46.164Z,22.80
2019-06-26T19:17:18.339Z,22.90
2019-06-26T19:19:51.976Z,22.50
2019-06-26T19:22:24.373Z,23.10
2019-06-26T19:24:57.742Z,22.70
2019-06-26T19:27:30.127Z,23.10
2019-06-26T19:30:02.606Z,23.10
2019-06-26T19:32:37.573Z,23.10
2019-06-26T19:35:18.411Z,23.40
2019-06-26T19:37:43.899Z,23.40
2019-06-26T19:40:17.686Z,23.30
2019-06-26T19:42:50.004Z,23.00
2019-06-26T19:45:22.949Z,22.90
2019-06-26T19:47:55.433Z,23.50
2019-06-26T19:50:27.875Z,23.40
2019-06-26T19:53:01.331Z,23.50
2019-06-26T19:55:33.906Z,24.20
2019-06-26T19:58:06.349Z,25.00
2019-06-26T20:00:38.716Z,25.30
2019-06-26T20:03:12.068Z,25.50
2019-06-26T20:05:44.679Z,25.80
2019-06-26T20:08:17.133Z,25.60
2019-06-26T20:10:50.838Z,25.10
2019-06-26T20:13:23.160Z,25.60
2019-06-26T20:15:55.790Z,25.00
2019-06-26T20:18:28.790Z,25.00
2019-06-26T20:21:01.148Z,24.90
2019-06-26T20:23:33.604Z,24.80
2019-06-26T20:26:05.995Z,25.60
2019-06-26T20:28:38.446Z,25.10
2019-06-26T20:31:12.262Z,24.70
2019-06-26T20:33:47.910Z,23.70
2019-06-26T20:36:27.652Z,24.10
2019-06-26T20:39:00.258Z,24.50
2019-06-26T20:41:34.007Z,24.40
2019-06-26T20:44:09.264Z,24.30
2019-06-26T20:46:45.893Z,24.20
2019-06-26T20:49:18.335Z,25.10
2019-06-26T20:51:50.719Z,24.80
2019-06-26T20:54:23.075Z,24.50
2019-06-26T20:56:55.524Z,24.70
2019-06-26T20:59:27.885Z,24.40
2019-06-26T21:02:00.261Z,24.50
2019-06-26T21:04:33.934Z,24.70
2019-06-26T21:07:06.395Z,24.70
2019-06-26T21:09:38.950Z,24.60
2019-06-26T21:12:12.646Z,24.00
2019-06-26T21:14:45.070Z,24.10
2019-06-26T21:17:20.563Z,24.00
2019-06-26T21:19:53.346Z,24.40
2019-06-26T21:22:25.764Z,24.80
2019-06-26T21:24:58.101Z,24.40
2019-06-26T21:27:33.396Z,24.40
2019-06-26T21:30:06.950Z,24.60
2019-06-26T21:32:39.332Z,25.10
2019-06-26T21:35:12.202Z,24.80
2019-06-26T21:37:44.693Z,25.00
2019-06-26T21:40:17.302Z,25.70
2019-06-26T21:42:50.411Z,25.80
2019-06-26T21:45:27.945Z,25.20
2019-06-26T21:48:00.573Z,24.50
2019-06-26T21:50:32.916Z,24.90
2019-06-26T21:53:05.319Z,24.70
2019-06-26T21:55:38.999Z,25.00
2019-06-26T21:58:28.599Z,25.60
2019-06-26T22:01:18.444Z,25.70
2019-06-26T22:04:08.870Z,25.60
2019-06-26T22:06:42.943Z,25.80
2019-06-26T22:09:16.869Z,25.50
2019-06-26T22:11:49.341Z,25.10
2019-06-26T22:14:21.931Z,25.00
2019-06-26T22:16:54.338Z,24.80
2019-06-26T22:19:27.030Z,24.80
2019-06-26T22:22:00.554Z,23.90
2019-06-26T22:24:32.931Z,24.10
2019-06-26T22:27:05.266Z,24.00
2019-06-26T22:29:37.678Z,24.40
2019-06-26T22:32:10.011Z,24.30
2019-06-26T22:34:42.441Z,24.70
2019-06-26T22:37:15.892Z,24.60
2019-06-26T22:39:52.393Z,24.40
2019-06-26T22:42:25.884Z,25.10
2019-06-26T22:44:59.715Z,25.10
2019-06-26T22:47:34.978Z,24.40
2019-06-26T22:50:08.828Z,24.70
2019-06-26T22:52:44.327Z,24.80
2019-06-26T22:55:16.837Z,24.90
2019-06-26T22:57:49.247Z,24.40
2019-06-26T23:00:22.160Z,24.60
2019-06-26T23:02:54.570Z,24.50
2019-06-26T23:05:27.698Z,24.30
2019-06-26T23:08:00.063Z,24.00
2019-06-26T23:10:32.660Z,24.20
2019-06-26T23:13:05.433Z,24.50
2019-06-26T23:15:37.943Z,24.10
2019-06-26T23:18:10.303Z,24.50
2019-06-26T23:20:43.174Z,24.70
2019-06-26T23:23:15.543Z,24.40
2019-06-26T23:25:48.040Z,23.80
2019-06-26T23:28:20.403Z,23.40
2019-06-26T23:30:52.844Z,23.50
2019-06-26T23:33:25.350Z,23.60
2019-06-26T23:35:57.745Z,23.90
2019-06-26T23:38:30.105Z,23.40
2019-06-26T23:41:02.647Z,23.70
2019-06-26T23:43:35.010Z,23.90
2019-06-26T23:46:07.386Z,23.80
2019-06-26T23:48:39.855Z,23.80
2019-06-26T23:51:12.507Z,23.60
2019-06-26T23:53:45.116Z,23.80
2019-06-26T23:56:17.772Z,23.60
2019-06-26T23:58:50.098Z,23.40
